Time;durP1;ratioP1;P1;durP2;ratioP2;P2;SDS_P1;SDS_P2;PMS_P1;PMS_P2;Temp;Humidity;BMP_temperature;BMP_pressure;BME280_temperature;BME280_humidity;BME280_pressure;Samples;Min_cycle;Max_cycle;Signal;HPM_P1;HPM_P2
2024/01/06 00:00:28;;;;;;;13.47;8.10;;;6.40;99.90;;;;;;5114753;27;20429;-74
2024/01/06 00:02:53;;;;;;;14.63;7.70;;;6.40;99.90;;;;;;5097301;27;20414;-73
2024/01/06 00:05:19;;;;;;;13.97;7.37;;;6.40;99.90;;;;;;5132292;27;20207;-73
2024/01/06 00:07:45;;;;;;;13.03;7.53;;;6.40;99.90;;;;;;5113640;27;20201;-73
2024/01/06 00:10:10;;;;;;;12.47;6.83;;;6.40;99.90;;;;;;5113722;27;20648;-73
2024/01/06 00:12:36;;;;;;;14.53;7.43;;;6.40;99.90;;;;;;5132099;27;20311;-73
2024/01/06 00:15:02;;;;;;;11.10;6.10;;;6.30;99.90;;;;;;5132187;27;20741;-73
2024/01/06 00:17:28;;;;;;;14.23;7.87;;;6.30;99.90;;;;;;5132120;27;20220;-73
2024/01/06 00:19:54;;;;;;;7.70;5.63;;;6.30;99.90;;;;;;5132243;27;20407;-73
2024/01/06 00:22:20;;;;;;;8.87;5.60;;;6.30;99.90;;;;;;5132131;27;20181;-73
2024/01/06 00:24:45;;;;;;;13.27;6.50;;;6.30;99.90;;;;;;5114130;27;20419;-74
2024/01/06 00:27:11;;;;;;;10.17;6.10;;;6.30;99.90;;;;;;5113610;27;20211;-74
2024/01/06 00:29:37;;;;;;;12.23;7.50;;;6.30;99.90;;;;;;5113399;27;20187;-73
2024/01/06 00:32:03;;;;;;;18.30;10.03;;;6.30;99.90;;;;;;5131967;27;20430;-73
2024/01/06 00:34:28;;;;;;;15.40;10.90;;;6.30;99.90;;;;;;5130574;27;20200;-73
2024/01/06 00:36:54;;;;;;;14.90;9.50;;;6.30;99.90;;;;;;5131607;27;20461;-73
2024/01/06 00:39:20;;;;;;;14.23;7.17;;;6.30;99.90;;;;;;5131576;27;20173;-73
2024/01/06 00:41:46;;;;;;;11.13;6.90;;;6.20;99.90;;;;;;5131544;27;20666;-73
2024/01/06 00:44:11;;;;;;;13.93;7.07;;;6.20;99.90;;;;;;5095931;27;20536;-73
2024/01/06 00:46:37;;;;;;;8.03;6.30;;;6.20;99.90;;;;;;5112925;27;20193;-73
2024/01/06 00:49:03;;;;;;;10.47;6.90;;;6.30;99.90;;;;;;5130870;27;20177;-73
2024/01/06 00:51:29;;;;;;;11.77;6.03;;;6.20;99.90;;;;;;5131104;27;20414;-73
2024/01/06 00:53:55;;;;;;;8.37;6.07;;;6.20;99.90;;;;;;5130809;27;20905;-73
2024/01/06 00:56:21;;;;;;;10.43;6.47;;;6.20;99.90;;;;;;5130756;27;20707;-73
2024/01/06 00:58:46;;;;;;;16.10;7.33;;;6.20;99.90;;;;;;5130610;27;20429;-73
2024/01/06 01:01:12;;;;;;;8.87;5.67;;;6.20;99.90;;;;;;5095265;27;20189;-73
2024/01/06 01:03:38;;;;;;;10.40;6.13;;;6.10;99.90;;;;;;5131138;27;20216;-73
2024/01/06 01:06:04;;;;;;;12.93;6.53;;;6.10;99.90;;;;;;5130766;27;20178;-73
2024/01/06 01:08:30;;;;;;;8.83;5.97;;;6.10;99.90;;;;;;5095232;27;20272;-73
2024/01/06 01:10:56;;;;;;;7.17;5.50;;;6.10;99.90;;;;;;5113598;27;20430;-72
2024/01/06 01:13:22;;;;;;;11.30;5.73;;;6.10;99.90;;;;;;5112491;27;20422;-73
2024/01/06 01:15:48;;;;;;;7.20;4.50;;;6.10;99.90;;;;;;5112335;27;20465;-73
2024/01/06 01:18:14;;;;;;;7.43;5.03;;;6.10;99.90;;;;;;5130642;27;20483;-73
2024/01/06 01:20:41;;;;;;;6.47;5.13;;;6.10;99.90;;;;;;5112436;27;20643;-73
2024/01/06 01:23:07;;;;;;;7.03;5.17;;;6.00;99.90;;;;;;5130764;27;20173;-72
2024/01/06 01:25:33;;;;;;;7.90;4.60;;;6.00;99.90;;;;;;5111849;27;20434;-72
2024/01/06 01:27:59;;;;;;;6.67;4.20;;;6.00;99.90;;;;;;5130582;27;20496;-72
2024/01/06 01:30:24;;;;;;;8.20;4.83;;;5.90;99.90;;;;;;5112174;27;20247;-73
2024/01/06 01:32:50;;;;;;;8.47;4.00;;;5.90;99.90;;;;;;5111694;27;20686;-72
2024/01/06 01:35:15;;;;;;;8.00;4.07;;;5.90;99.90;;;;;;5094814;27;20211;-73
2024/01/06 01:37:41;;;;;;;8.30;4.30;;;5.90;99.90;;;;;;5130192;27;20205;-72
2024/01/06 01:40:07;;;;;;;7.20;3.77;;;5.90;99.90;;;;;;5112138;27;20613;-72
2024/01/06 01:42:33;;;;;;;5.57;3.50;;;5.90;99.90;;;;;;5130507;27;20180;-72
2024/01/06 01:44:59;;;;;;;6.60;3.40;;;5.90;99.90;;;;;;5111252;27;20414;-73
2024/01/06 01:47:25;;;;;;;4.13;3.17;;;5.90;99.90;;;;;;5111200;27;20458;-75
2024/01/06 01:49:53;;;;;;;5.93;3.37;;;5.90;99.90;;;;;;5129876;27;20426;-73
2024/01/06 01:52:19;;;;;;;5.13;2.53;;;5.90;99.90;;;;;;5129662;27;20414;-74
2024/01/06 01:54:46;;;;;;;5.20;2.83;;;5.90;99.90;;;;;;5129521;27;20457;-75
2024/01/06 01:57:13;;;;;;;3.40;2.53;;;5.90;99.90;;;;;;5129536;27;20202;-74
2024/01/06 01:59:39;;;;;;;5.73;2.60;;;5.90;99.90;;;;;;5129579;27;20426;-73
2024/01/06 02:02:05;;;;;;;9.17;2.53;;;5.90;99.90;;;;;;5129562;27;20414;-73
2024/01/06 02:04:31;;;;;;;3.37;2.00;;;5.90;99.90;;;;;;5110917;28;20430;-73
2024/01/06 02:06:57;;;;;;;3.77;1.97;;;5.90;99.90;;;;;;5110853;28;20435;-74
2024/01/06 02:09:26;;;;;;;7.93;1.90;;;5.80;99.90;;;;;;5129658;27;20177;-73
2024/01/06 02:11:52;;;;;;;4.70;2.37;;;5.80;99.90;;;;;;5129726;27;20173;-74
2024/01/06 02:14:18;;;;;;;3.40;1.70;;;5.80;99.90;;;;;;5129465;27;20441;-73
2024/01/06 02:16:43;;;;;;;3.93;2.07;;;5.80;99.90;;;;;;5129644;28;20940;-73
2024/01/06 02:19:11;;;;;;;3.43;2.13;;;5.90;99.90;;;;;;5111099;28;20235;-72
2024/01/06 02:21:42;;;;;;;4.17;1.90;;;5.90;99.90;;;;;;5111337;28;20723;-73
2024/01/06 02:24:08;;;;;;;3.50;2.03;;;5.80;99.90;;;;;;5129510;28;20411;-74
2024/01/06 02:26:33;;;;;;;8.63;2.07;;;5.80;99.90;;;;;;5129449;28;20655;-74
2024/01/06 02:28:59;;;;;;;4.90;2.00;;;5.90;99.90;;;;;;5077181;28;20193;-73
2024/01/06 02:31:25;;;;;;;4.97;2.00;;;5.90;99.90;;;;;;5111058;28;20208;-73
2024/01/06 02:33:50;;;;;;;3.10;1.77;;;5.80;99.90;;;;;;5093839;28;20185;-72
2024/01/06 02:36:16;;;;;;;5.00;2.47;;;5.90;99.90;;;;;;5110732;28;20242;-73
2024/01/06 02:38:41;;;;;;;5.93;1.77;;;5.80;99.90;;;;;;5129339;28;20184;-73
2024/01/06 02:41:07;;;;;;;4.97;1.90;;;5.80;99.90;;;;;;5129512;28;20177;-73
2024/01/06 02:43:33;;;;;;;4.70;1.93;;;5.80;99.90;;;;;;5093995;28;20691;-73
2024/01/06 02:45:58;;;;;;;4.77;1.60;;;5.80;99.90;;;;;;5093917;28;20188;-73
2024/01/06 02:48:24;;;;;;;4.00;2.10;;;5.80;99.90;;;;;;5110848;28;20181;-72
2024/01/06 02:50:49;;;;;;;4.03;2.00;;;5.80;99.90;;;;;;5093822;28;20570;-73
2024/01/06 02:53:15;;;;;;;3.90;1.83;;;5.80;99.90;;;;;;5110688;28;20203;-72
2024/01/06 02:55:40;;;;;;;6.43;2.27;;;5.70;99.90;;;;;;5128911;28;20278;-71
2024/01/06 02:58:06;;;;;;;1.80;1.60;;;5.80;99.90;;;;;;5112656;27;20205;-72
2024/01/06 03:00:32;;;;;;;7.40;3.77;;;5.80;99.90;;;;;;5132994;27;20177;-72
2024/01/06 03:02:57;;;;;;;7.83;3.57;;;5.70;99.90;;;;;;5114167;27;20215;-72
2024/01/06 03:05:23;;;;;;;8.00;3.73;;;5.70;99.90;;;;;;5132832;27;20272;-72
2024/01/06 03:07:48;;;;;;;15.60;5.17;;;5.70;99.90;;;;;;5114526;27;20216;-72
2024/01/06 03:10:14;;;;;;;11.70;4.93;;;5.60;99.90;;;;;;5114532;27;20959;-72
2024/01/06 03:12:40;;;;;;;8.87;4.73;;;5.60;99.90;;;;;;5132565;27;20181;-72
2024/01/06 03:15:06;;;;;;;7.80;3.80;;;5.70;99.90;;;;;;5132728;27;20297;-72
2024/01/06 03:17:32;;;;;;;15.23;3.87;;;5.60;99.90;;;;;;5132807;27;20200;-72
2024/01/06 03:19:57;;;;;;;5.47;3.37;;;5.60;99.90;;;;;;5097499;27;20529;-73
2024/01/06 03:22:23;;;;;;;4.13;3.00;;;5.60;99.90;;;;;;5132623;27;20185;-72
2024/01/06 03:24:49;;;;;;;5.30;3.03;;;5.50;99.90;;;;;;5114389;27;20181;-72
2024/01/06 03:27:14;;;;;;;9.00;3.17;;;5.50;99.90;;;;;;5096872;27;20209;-72
2024/01/06 03:29:40;;;;;;;15.30;3.80;;;5.50;99.90;;;;;;5114264;27;20572;-72
2024/01/06 03:32:06;;;;;;;6.83;2.33;;;5.50;99.90;;;;;;5113428;27;20199;-72
2024/01/06 03:34:32;;;;;;;6.63;2.60;;;5.50;99.90;;;;;;5132416;27;20415;-72
2024/01/06 03:36:57;;;;;;;7.63;2.17;;;5.50;99.90;;;;;;5132140;27;21017;-71
2024/01/06 03:39:23;;;;;;;5.13;1.87;;;5.50;99.90;;;;;;5113649;27;20184;-73
2024/01/06 03:41:49;;;;;;;2.80;2.00;;;5.40;99.90;;;;;;5096646;27;20189;-73
2024/01/06 03:44:14;;;;;;;6.47;2.10;;;5.50;99.90;;;;;;5132187;27;20184;-72
2024/01/06 03:46:40;;;;;;;3.53;2.10;;;5.40;99.90;;;;;;5131890;27;20446;-72
2024/01/06 03:49:06;;;;;;;5.13;1.97;;;5.30;99.90;;;;;;5113711;27;20212;-73
2024/01/06 03:51:31;;;;;;;4.17;2.40;;;5.30;99.90;;;;;;5132035;27;20187;-72
2024/01/06 03:53:57;;;;;;;8.90;2.00;;;5.30;99.90;;;;;;5113556;27;20243;-73
2024/01/06 03:56:23;;;;;;;7.43;2.20;;;5.20;99.90;;;;;;5131895;27;20220;-73
2024/01/06 03:58:48;;;;;;;8.37;2.13;;;5.20;99.90;;;;;;5132113;27;20192;-73
2024/01/06 04:01:14;;;;;;;5.60;2.07;;;5.20;99.90;;;;;;5113720;27;20284;-73
2024/01/06 04:03:42;;;;;;;5.67;2.10;;;5.10;99.90;;;;;;5096881;27;20180;-72
2024/01/06 04:06:09;;;;;;;5.60;2.53;;;5.20;99.90;;;;;;5113477;27;20193;-74
2024/01/06 04:08:36;;;;;;;4.72;2.30;;;5.20;99.90;;;;;;5113313;27;20955;-72
2024/01/06 04:11:02;;;;;;;5.17;1.73;;;5.30;99.90;;;;;;5132002;27;20208;-73
2024/01/06 04:13:27;;;;;;;3.53;1.97;;;5.30;99.90;;;;;;5131849;27;20514;-73
2024/01/06 04:15:53;;;;;;;4.20;1.60;;;5.30;99.90;;;;;;5113005;27;20231;-73
2024/01/06 04:18:19;;;;;;;9.43;2.10;;;5.40;99.90;;;;;;5131854;27;20434;-72
2024/01/06 04:20:44;;;;;;;7.50;2.00;;;5.30;99.90;;;;;;5079417;27;20181;-73
2024/01/06 04:23:10;;;;;;;3.97;2.00;;;5.40;99.90;;;;;;5131988;27;20172;-72
2024/01/06 04:25:35;;;;;;;4.87;2.60;;;5.30;99.90;;;;;;5096117;27;20555;-73
2024/01/06 04:28:01;;;;;;;5.43;2.77;;;5.30;99.90;;;;;;5131760;27;20254;-73
2024/01/06 04:30:26;;;;;;;3.10;2.40;;;5.30;99.90;;;;;;5113138;27;20194;-73
2024/01/06 04:32:52;;;;;;;3.03;2.00;;;5.30;99.90;;;;;;5096385;27;20180;-73
2024/01/06 04:35:20;;;;;;;2.77;2.10;;;5.30;99.90;;;;;;5131456;27;20224;-73
2024/01/06 04:37:45;;;;;;;5.30;2.73;;;5.30;99.90;;;;;;5113176;27;20641;-73
2024/01/06 04:40:11;;;;;;;4.00;1.83;;;5.30;99.90;;;;;;5096088;27;20422;-73
2024/01/06 04:42:37;;;;;;;5.10;2.33;;;5.40;99.90;;;;;;5131707;27;20219;-73
2024/01/06 04:45:04;;;;;;;2.00;1.73;;;5.40;99.90;;;;;;5113075;27;20438;-71
2024/01/06 04:47:30;;;;;;;3.93;2.20;;;5.40;99.90;;;;;;5112709;27;20725;-73
2024/01/06 04:49:56;;;;;;;8.47;3.60;;;5.40;99.90;;;;;;5112644;27;20426;-72
2024/01/06 04:52:22;;;;;;;2.73;1.90;;;5.40;99.90;;;;;;5131491;27;20924;-73
2024/01/06 04:54:48;;;;;;;2.80;2.00;;;5.40;99.90;;;;;;5130988;27;20459;-72
2024/01/06 04:57:14;;;;;;;3.43;2.17;;;5.40;99.90;;;;;;5112802;27;20931;-73
2024/01/06 04:59:40;;;;;;;5.10;2.33;;;5.40;99.90;;;;;;5130992;27;20818;-72
2024/01/06 05:02:06;;;;;;;7.70;2.30;;;5.40;99.90;;;;;;5131378;27;20429;-72
2024/01/06 05:04:32;;;;;;;4.53;2.23;;;5.40;99.90;;;;;;5131184;27;20660;-73
2024/01/06 05:06:58;;;;;;;4.37;1.83;;;5.40;99.90;;;;;;5096153;27;20454;-73
2024/01/06 05:09:25;;;;;;;9.80;2.57;;;5.50;99.90;;;;;;5131262;27;20508;-73
2024/01/06 05:11:50;;;;;;;4.83;2.20;;;5.50;99.90;;;;;;5131308;27;20505;-72
2024/01/06 05:14:16;;;;;;;7.70;2.33;;;5.40;99.90;;;;;;5131056;27;20855;-74
2024/01/06 05:16:42;;;;;;;3.60;2.23;;;5.50;99.90;;;;;;5112244;27;20223;-73
2024/01/06 05:19:08;;;;;;;3.73;2.23;;;5.50;99.90;;;;;;5112626;27;20604;-73
2024/01/06 05:21:35;;;;;;;3.80;2.30;;;5.50;99.90;;;;;;5130483;27;20796;-73
2024/01/06 05:24:01;;;;;;;5.90;3.30;;;5.50;99.90;;;;;;5130938;27;20940;-73
2024/01/06 05:26:27;;;;;;;5.97;2.83;;;5.50;99.90;;;;;;5130933;27;20866;-72
2024/01/06 05:28:52;;;;;;;4.73;2.50;;;5.50;99.90;;;;;;5112506;27;20453;-73
2024/01/06 05:31:18;;;;;;;5.17;2.10;;;5.50;99.90;;;;;;5130948;27;20208;-73
2024/01/06 05:33:44;;;;;;;2.80;1.90;;;5.50;99.90;;;;;;5095477;27;20192;-73
2024/01/06 05:36:09;;;;;;;3.83;2.10;;;5.50;99.90;;;;;;5112107;27;20220;-73
2024/01/06 05:38:36;;;;;;;4.17;2.30;;;5.50;99.90;;;;;;5130595;27;20173;-73
2024/01/06 05:41:02;;;;;;;3.33;2.20;;;5.50;99.90;;;;;;5112411;27;20197;-74
2024/01/06 05:43:28;;;;;;;9.67;2.60;;;5.50;99.90;;;;;;5130295;27;20668;-73
2024/01/06 05:45:54;;;;;;;4.60;1.97;;;5.50;99.90;;;;;;5130340;27;20520;-72
2024/01/06 05:48:19;;;;;;;4.80;2.00;;;5.50;99.90;;;;;;5130251;27;20568;-72
2024/01/06 05:50:45;;;;;;;4.50;2.40;;;5.60;99.90;;;;;;5094802;27;20221;-73
2024/01/06 05:53:11;;;;;;;4.83;2.37;;;5.50;99.90;;;;;;5095738;27;20240;-72
2024/01/06 05:55:38;;;;;;;6.67;2.10;;;5.50;99.90;;;;;;5130605;27;20454;-73
2024/01/06 05:58:04;;;;;;;4.17;1.87;;;5.50;99.90;;;;;;5112257;27;20192;-73
2024/01/06 06:00:31;;;;;;;5.27;2.00;;;5.50;99.90;;;;;;5111997;27;20432;-72
2024/01/06 06:02:57;;;;;;;6.03;2.20;;;5.50;99.90;;;;;;5111743;28;20671;-73
2024/01/06 06:05:23;;;;;;;4.30;2.67;;;5.50;99.90;;;;;;5095109;27;20430;-73
2024/01/06 06:07:48;;;;;;;2.60;2.40;;;5.50;99.90;;;;;;5130204;27;20556;-72
2024/01/06 06:10:15;;;;;;;2.07;1.63;;;5.50;99.90;;;;;;5111960;27;20181;-72
2024/01/06 06:12:41;;;;;;;5.60;2.00;;;5.50;99.90;;;;;;5111953;28;20183;-73
2024/01/06 06:15:07;;;;;;;4.83;3.03;;;5.50;99.90;;;;;;5111377;28;20461;-72
2024/01/06 06:17:34;;;;;;;3.73;2.10;;;5.50;99.90;;;;;;5111560;28;20196;-73
2024/01/06 06:20:00;;;;;;;3.00;1.47;;;5.50;99.90;;;;;;5111700;28;20780;-73
2024/01/06 06:22:29;;;;;;;2.93;1.67;;;5.50;99.90;;;;;;5130041;28;20418;-73
2024/01/06 06:24:58;;;;;;;2.17;1.60;;;5.50;99.90;;;;;;5130017;28;20187;-73
2024/01/06 06:27:24;;;;;;;7.33;1.60;;;5.50;99.90;;;;;;5129740;27;20835;-73
2024/01/06 06:29:50;;;;;;;3.10;2.37;;;5.50;99.90;;;;;;5111554;28;20426;-72
2024/01/06 06:32:15;;;;;;;6.87;3.07;;;5.50;99.90;;;;;;5112162;27;20426;-73
2024/01/06 06:34:42;;;;;;;5.17;2.93;;;5.50;99.90;;;;;;5134228;27;20180;-73
2024/01/06 06:37:08;;;;;;;4.20;2.10;;;5.50;99.90;;;;;;5115685;27;20208;-73
2024/01/06 06:39:35;;;;;;;8.00;2.93;;;5.40;99.90;;;;;;5134133;27;20411;-72
2024/01/06 06:42:01;;;;;;;5.27;2.80;;;5.40;99.90;;;;;;5133945;27;20178;-74
2024/01/06 06:44:27;;;;;;;4.80;2.97;;;5.40;99.90;;;;;;5133845;27;20407;-73
2024/01/06 06:46:52;;;;;;;4.67;2.70;;;5.40;99.90;;;;;;5133794;27;20936;-73
2024/01/06 06:49:18;;;;;;;5.57;2.43;;;5.40;99.90;;;;;;5133626;27;20720;-74
2024/01/06 06:51:47;;;;;;;4.80;2.20;;;5.40;99.90;;;;;;5115263;27;20192;-74
2024/01/06 06:54:16;;;;;;;8.80;2.00;;;5.40;99.90;;;;;;5115962;27;20169;-73
2024/01/06 06:56:42;;;;;;;4.43;2.70;;;5.40;99.90;;;;;;5133344;27;20481;-73
2024/01/06 06:59:08;;;;;;;9.50;2.97;;;5.40;99.90;;;;;;5115217;27;20505;-73
2024/01/06 07:01:35;;;;;;;2.23;1.60;;;5.40;99.90;;;;;;5097959;27;20564;-74
2024/01/06 07:04:01;;;;;;;6.57;1.77;;;5.40;99.90;;;;;;5114955;27;20176;-74
2024/01/06 07:06:28;;;;;;;3.30;1.80;;;5.40;99.90;;;;;;5132974;27;21256;-74
2024/01/06 07:08:54;;;;;;;3.53;1.90;;;5.40;99.90;;;;;;5133040;27;20418;-73
2024/01/06 07:11:20;;;;;;;3.63;1.70;;;5.30;99.90;;;;;;5132803;27;20464;-73
2024/01/06 07:13:45;;;;;;;3.87;1.43;;;5.30;99.90;;;;;;5114681;27;20422;-74
2024/01/06 07:16:11;;;;;;;7.07;1.30;;;5.30;99.90;;;;;;5132424;27;20215;-74
2024/01/06 07:18:37;;;;;;;6.03;1.53;;;5.30;99.90;;;;;;5114019;27;20557;-73
2024/01/06 07:21:06;;;;;;;3.07;1.40;;;5.30;99.90;;;;;;5132478;27;20929;-74
2024/01/06 07:23:32;;;;;;;2.23;1.40;;;5.30;99.90;;;;;;5133041;27;21086;-72
2024/01/06 07:25:57;;;;;;;2.20;1.30;;;5.40;99.90;;;;;;5132359;27;20423;-74
2024/01/06 07:28:23;;;;;;;3.97;1.63;;;5.40;99.90;;;;;;5114070;27;20533;-74
2024/01/06 07:30:49;;;;;;;3.90;1.33;;;5.40;99.90;;;;;;5113769;27;20601;-74
2024/01/06 07:33:14;;;;;;;6.50;1.70;;;5.30;99.90;;;;;;5096907;27;20272;-73
2024/01/06 07:35:43;;;;;;;5.53;1.40;;;5.30;99.90;;;;;;5132150;27;20580;-74
2024/01/06 07:38:10;;;;;;;3.97;1.57;;;5.40;99.90;;;;;;5112349;28;20239;-74
2024/01/06 07:40:36;;;;;;;3.20;1.33;;;5.40;99.90;;;;;;5112758;28;20411;-73
2024/01/06 07:43:01;;;;;;;1.73;1.13;;;5.30;99.90;;;;;;5112500;27;20418;-73
2024/01/06 07:45:27;;;;;;;4.97;1.47;;;5.30;99.90;;;;;;5131088;28;20406;-74
2024/01/06 07:47:53;;;;;;;2.20;1.50;;;5.40;99.90;;;;;;5130859;27;20219;-73
2024/01/06 07:50:18;;;;;;;5.97;1.87;;;5.40;99.90;;;;;;5095571;28;20185;-73
2024/01/06 07:52:44;;;;;;;4.80;1.70;;;5.40;99.90;;;;;;5112518;28;20211;-73
2024/01/06 07:55:09;;;;;;;5.00;1.90;;;5.40;99.90;;;;;;5131002;28;20247;-73
2024/01/06 07:57:35;;;;;;;13.23;1.90;;;5.50;99.90;;;;;;5096040;28;20224;-73
2024/01/06 08:00:01;;;;;;;3.00;1.33;;;5.40;99.90;;;;;;5112879;28;20184;-74
2024/01/06 08:02:26;;;;;;;2.93;1.20;;;5.40;99.90;;;;;;5112807;28;20181;-73
2024/01/06 08:04:53;;;;;;;3.90;1.70;;;5.40;99.90;;;;;;5131065;28;20189;-74
2024/01/06 08:07:19;;;;;;;1.63;0.90;;;5.40;99.90;;;;;;5130646;28;20204;-75
2024/01/06 08:09:44;;;;;;;10.03;1.47;;;5.40;99.90;;;;;;5111121;28;20767;-74
2024/01/06 08:12:10;;;;;;;3.73;1.07;;;5.50;99.90;;;;;;5129616;27;20200;-73
2024/01/06 08:14:36;;;;;;;3.47;1.40;;;5.50;99.90;;;;;;5129467;28;20185;-73
2024/01/06 08:17:01;;;;;;;4.37;1.10;;;5.50;99.90;;;;;;5111056;28;20198;-73
2024/01/06 08:19:29;;;;;;;7.50;1.33;;;5.60;99.90;;;;;;5110652;28;20219;-73
2024/01/06 08:21:55;;;;;;;1.97;1.00;;;5.60;99.90;;;;;;5129133;27;20169;-73
2024/01/06 08:24:21;;;;;;;2.83;1.50;;;5.60;99.90;;;;;;5110885;28;20423;-73
2024/01/06 08:26:47;;;;;;;5.77;1.87;;;5.70;99.90;;;;;;5110224;28;20300;-73
2024/01/06 08:29:14;;;;;;;3.93;1.33;;;5.70;99.90;;;;;;5110697;28;20315;-73
2024/01/06 08:31:40;;;;;;;2.40;1.67;;;5.70;99.90;;;;;;5110568;28;20437;-73
2024/01/06 08:34:07;;;;;;;3.13;1.60;;;5.70;99.90;;;;;;5129347;27;20905;-73
2024/01/06 08:36:34;;;;;;;1.47;1.30;;;5.70;99.90;;;;;;5090533;27;1095557;-73
2024/01/06 08:38:59;;;;;;;5.33;1.30;;;5.80;99.90;;;;;;5130508;27;20181;-73
2024/01/06 08:41:25;;;;;;;3.03;1.47;;;5.80;99.90;;;;;;5111895;27;20808;-73
2024/01/06 08:43:50;;;;;;;1.80;1.20;;;5.80;99.90;;;;;;5130465;27;20220;-74
2024/01/06 08:46:17;;;;;;;3.37;1.83;;;5.80;99.90;;;;;;5095406;27;20193;-74
2024/01/06 08:48:42;;;;;;;4.87;2.20;;;5.90;99.90;;;;;;5130425;27;20173;-73
2024/01/06 08:51:08;;;;;;;5.57;1.90;;;5.90;99.90;;;;;;5130190;27;20415;-73
2024/01/06 08:53:33;;;;;;;2.93;1.40;;;5.90;99.90;;;;;;5111761;27;20181;-73
2024/01/06 08:55:59;;;;;;;3.03;1.83;;;5.90;99.90;;;;;;5111207;27;20204;-73
2024/01/06 08:58:25;;;;;;;1.60;1.23;;;6.10;99.90;;;;;;5112051;27;20181;-74
2024/01/06 09:00:51;;;;;;;3.53;1.30;;;6.00;99.90;;;;;;5095361;27;20181;-73
2024/01/06 09:03:16;;;;;;;8.83;2.37;;;6.00;99.90;;;;;;5130316;27;20220;-73
2024/01/06 09:05:42;;;;;;;10.83;2.37;;;6.10;99.90;;;;;;5130454;27;20509;-73
2024/01/06 09:08:08;;;;;;;1.70;1.60;;;6.10;99.90;;;;;;5129912;27;20938;-73
2024/01/06 09:10:33;;;;;;;3.70;2.50;;;6.20;99.90;;;;;;5111456;27;20193;-73
2024/01/06 09:13:00;;;;;;;3.47;1.57;;;6.30;99.90;;;;;;5111590;27;20710;-73
2024/01/06 09:15:25;;;;;;;5.37;2.93;;;6.40;99.90;;;;;;5094322;27;21003;-73
2024/01/06 09:17:51;;;;;;;6.83;2.23;;;6.50;99.90;;;;;;5129449;27;20516;-73
2024/01/06 09:20:17;;;;;;;5.90;2.57;;;6.50;99.90;;;;;;5111072;27;20673;-73
2024/01/06 09:22:43;;;;;;;6.10;2.37;;;6.60;99.90;;;;;;5129530;27;20173;-73
2024/01/06 09:25:08;;;;;;;6.87;2.57;;;6.60;99.90;;;;;;5111349;27;20424;-73
2024/01/06 09:27:34;;;;;;;6.10;3.30;;;6.70;99.90;;;;;;5077243;27;20691;-73
2024/01/06 09:30:00;;;;;;;4.50;1.97;;;6.90;99.90;;;;;;5129458;27;20269;-72
2024/01/06 09:32:25;;;;;;;7.30;2.30;;;6.90;99.90;;;;;;5111112;27;20189;-74
2024/01/06 09:34:51;;;;;;;2.00;1.60;;;6.90;99.90;;;;;;5111414;27;20205;-73
2024/01/06 09:37:16;;;;;;;2.40;1.60;;;7.00;99.90;;;;;;5129547;27;20282;-73
2024/01/06 09:39:42;;;;;;;3.17;1.40;;;7.10;99.90;;;;;;5130109;27;20212;-73
2024/01/06 09:42:08;;;;;;;3.50;1.90;;;7.00;99.90;;;;;;5130103;27;20261;-73
2024/01/06 09:44:34;;;;;;;6.10;1.90;;;7.00;99.90;;;;;;5130139;27;20239;-73
2024/01/06 09:47:03;;;;;;;1.87;1.40;;;6.80;99.90;;;;;;5130345;27;20435;-73
2024/01/06 09:49:32;;;;;;;7.60;2.63;;;6.80;99.90;;;;;;5112267;27;20189;-73
2024/01/06 09:51:59;;;;;;;3.63;2.33;;;6.80;99.90;;;;;;5130122;27;20413;-72
2024/01/06 09:54:29;;;;;;;3.73;2.03;;;6.80;99.90;;;;;;5111571;27;20420;-73
2024/01/06 09:56:56;;;;;;;4.10;1.30;;;6.70;99.90;;;;;;5129381;27;20542;-73
2024/01/06 09:59:22;;;;;;;5.00;2.00;;;6.80;99.90;;;;;;5129401;27;20403;-73
2024/01/06 10:01:49;;;;;;;7.27;1.70;;;6.80;99.90;;;;;;5128996;27;20418;-73
2024/01/06 10:04:15;;;;;;;2.93;1.60;;;6.70;99.90;;;;;;5110638;28;20801;-73
2024/01/06 10:06:41;;;;;;;7.57;2.07;;;6.70;99.90;;;;;;5110148;27;20438;-73
2024/01/06 10:09:07;;;;;;;8.40;5.20;;;6.60;99.90;;;;;;5128723;27;20184;-73
2024/01/06 10:11:35;;;;;;;8.27;2.37;;;6.60;99.90;;;;;;5110266;27;20502;-73
2024/01/06 10:14:03;;;;;;;6.33;1.90;;;6.60;99.90;;;;;;5130126;27;20188;-73
2024/01/06 10:16:28;;;;;;;1.80;1.63;;;6.50;99.90;;;;;;5110065;27;20623;-73
2024/01/06 10:18:54;;;;;;;2.90;1.33;;;6.50;99.90;;;;;;5128373;28;20422;-73
2024/01/06 10:21:25;;;;;;;1.53;1.10;;;6.50;99.90;;;;;;5093118;28;20177;-73
2024/01/06 10:23:51;;;;;;;2.97;2.03;;;6.50;99.90;;;;;;5128262;28;20201;-73
2024/01/06 10:26:17;;;;;;;3.50;1.60;;;6.60;99.90;;;;;;5128389;28;20478;-73
2024/01/06 10:28:43;;;;;;;4.47;1.73;;;6.50;99.90;;;;;;5109847;28;20235;-73
2024/01/06 10:31:09;;;;;;;1.60;1.43;;;6.50;99.90;;;;;;5128663;28;20419;-73
2024/01/06 10:33:35;;;;;;;2.47;1.60;;;6.60;99.90;;;;;;5128887;28;20208;-73
2024/01/06 10:36:03;;;;;;;2.90;1.30;;;6.60;99.90;;;;;;5128148;28;20465;-73
2024/01/06 10:38:29;;;;;;;3.57;1.50;;;6.60;99.90;;;;;;5110329;28;20789;-74
2024/01/06 10:40:58;;;;;;;2.10;1.27;;;6.60;99.90;;;;;;5110664;28;20453;-73
2024/01/06 10:43:28;;;;;;;2.60;1.33;;;6.60;99.90;;;;;;5109986;28;20422;-73
2024/01/06 10:45:57;;;;;;;1.40;1.30;;;6.70;99.90;;;;;;5128654;28;20454;-73
2024/01/06 10:48:24;;;;;;;1.57;1.23;;;6.70;99.90;;;;;;5109769;28;20442;-73
2024/01/06 10:50:51;;;;;;;3.93;1.87;;;6.80;99.90;;;;;;5128391;28;20897;-73
2024/01/06 10:53:18;;;;;;;3.10;1.80;;;6.80;99.90;;;;;;5127900;28;20411;-73
2024/01/06 10:55:45;;;;;;;1.20;1.10;;;6.80;99.90;;;;;;5127941;28;20466;-73
2024/01/06 10:58:16;;;;;;;5.40;1.60;;;6.80;99.90;;;;;;5109232;28;20842;-73
2024/01/06 11:00:41;;;;;;;1.97;1.80;;;6.90;99.90;;;;;;5108861;28;20411;-73
2024/01/06 11:03:09;;;;;;;1.80;1.67;;;6.90;99.90;;;;;;5127852;28;20410;-73
2024/01/06 11:05:36;;;;;;;1.50;1.40;;;7.00;99.90;;;;;;5127832;28;20268;-73
2024/01/06 11:08:03;;;;;;;1.50;1.10;;;7.00;99.90;;;;;;5127586;28;20446;-73
2024/01/06 11:10:31;;;;;;;3.73;1.47;;;6.90;99.90;;;;;;5127786;28;20406;-73
2024/01/06 11:13:08;;;;;;;6.20;1.30;;;7.00;99.90;;;;;;5109240;28;20425;-73
2024/01/06 11:16:05;;;;;;;2.97;1.30;;;7.00;99.90;;;;;;5127800;28;20488;-73
2024/01/06 11:18:42;;;;;;;1.67;1.40;;;7.00;99.90;;;;;;5107382;27;20450;-73
2024/01/06 11:21:12;;;;;;;1.30;1.20;;;7.00;99.90;;;;;;5113080;27;20513;-74
2024/01/06 11:23:38;;;;;;;4.43;1.40;;;7.00;99.90;;;;;;5131223;27;20925;-73
2024/01/06 11:26:06;;;;;;;2.23;2.03;;;7.00;99.90;;;;;;5112913;27;20418;-73
2024/01/06 11:28:31;;;;;;;1.43;1.17;;;7.00;99.90;;;;;;5131272;27;20181;-73
2024/01/06 11:31:09;;;;;;;1.77;1.43;;;7.00;99.90;;;;;;5131497;27;20411;-73
2024/01/06 11:33:42;;;;;;;2.10;1.30;;;7.00;99.90;;;;;;5131275;27;20184;-77
2024/01/06 11:36:11;;;;;;;1.83;1.63;;;7.00;99.90;;;;;;5131331;27;20462;-74
2024/01/06 11:38:40;;;;;;;3.47;1.63;;;6.90;99.90;;;;;;5112917;27;20411;-73
2024/01/06 11:41:10;;;;;;;1.30;1.20;;;6.90;99.90;;;;;;5131402;27;20410;-73
2024/01/06 11:43:39;;;;;;;1.47;1.37;;;6.90;99.90;;;;;;5130954;27;20415;-73
2024/01/06 11:46:07;;;;;;;2.97;1.40;;;6.90;99.90;;;;;;5130879;27;20410;-72
2024/01/06 11:48:33;;;;;;;1.50;1.40;;;6.90;99.90;;;;;;5131038;27;21214;-72
2024/01/06 11:50:58;;;;;;;1.87;1.20;;;7.00;99.90;;;;;;5112116;27;20419;-73
2024/01/06 11:53:26;;;;;;;1.70;1.33;;;6.90;99.90;;;;;;5111825;27;20429;-72
2024/01/06 11:55:52;;;;;;;1.33;1.23;;;6.70;99.90;;;;;;5094874;27;20462;-73
2024/01/06 11:58:18;;;;;;;2.60;1.40;;;6.70;99.90;;;;;;5111948;27;20465;-72
2024/01/06 12:00:43;;;;;;;2.20;1.80;;;6.70;99.90;;;;;;5130738;27;20808;-72
2024/01/06 12:03:09;;;;;;;1.80;1.33;;;6.70;99.90;;;;;;5130590;27;20188;-74
2024/01/06 12:05:35;;;;;;;2.33;1.60;;;6.70;99.90;;;;;;5130456;27;20188;-72
2024/01/06 12:08:06;;;;;;;2.33;1.37;;;6.60;99.90;;;;;;5130557;27;20953;-75
2024/01/06 12:10:32;;;;;;;4.53;1.70;;;6.60;99.90;;;;;;5112536;27;20212;-73
2024/01/06 12:13:05;;;;;;;2.30;2.10;;;6.60;99.90;;;;;;5130446;27;20792;-73
2024/01/06 12:15:32;;;;;;;2.10;1.80;;;6.50;99.90;;;;;;5111675;27;20478;-72
2024/01/06 12:17:58;;;;;;;3.70;1.40;;;6.50;99.90;;;;;;5111515;27;20441;-73
2024/01/06 12:20:25;;;;;;;2.40;1.80;;;6.50;99.90;;;;;;5130073;27;20426;-73
2024/01/06 12:22:53;;;;;;;2.23;1.70;;;6.50;99.90;;;;;;5111872;27;20522;-73
2024/01/06 12:25:20;;;;;;;1.70;1.50;;;6.50;99.90;;;;;;5130609;27;20430;-73
2024/01/06 12:27:47;;;;;;;1.00;0.90;;;6.50;99.90;;;;;;5130295;27;20460;-73
2024/01/06 12:30:18;;;;;;;2.10;1.33;;;6.50;99.90;;;;;;5110933;27;20799;-73
2024/01/06 12:32:46;;;;;;;1.20;1.00;;;6.40;99.90;;;;;;5130616;27;20425;-73
2024/01/06 12:35:12;;;;;;;4.00;1.87;;;6.40;99.90;;;;;;5129911;27;21153;-73
2024/01/06 12:37:38;;;;;;;2.10;1.40;;;6.40;99.90;;;;;;5129829;27;20454;-73
2024/01/06 12:40:05;;;;;;;1.10;1.00;;;6.40;99.90;;;;;;5129822;27;20418;-73
2024/01/06 12:42:31;;;;;;;1.20;1.10;;;6.40;99.90;;;;;;5094262;27;20439;-73
2024/01/06 12:44:56;;;;;;;1.30;1.20;;;6.40;99.90;;;;;;5129759;27;20425;-73
2024/01/06 12:47:22;;;;;;;3.60;1.43;;;6.40;99.90;;;;;;5129574;27;20225;-72
2024/01/06 12:49:48;;;;;;;2.23;1.50;;;6.40;99.90;;;;;;5110844;27;20181;-73